createdAt,value
2022-11-14T00:02:01.199Z,8.90
2022-11-14T00:07:32.965Z,8.40
2022-11-14T00:10:17.607Z,8.10
2022-11-14T00:13:01.501Z,9.20
2022-11-14T00:15:45.810Z,8.30
2022-11-14T00:18:29.752Z,7.70
2022-11-14T00:21:13.535Z,7.30
2022-11-14T00:23:56.066Z,6.90
2022-11-14T00:26:39.738Z,7.70
2022-11-14T00:29:23.598Z,8.70
2022-11-14T00:32:07.849Z,9.00
2022-11-14T00:34:51.533Z,7.90
2022-11-14T00:37:35.530Z,7.90
2022-11-14T00:40:19.195Z,7.60
2022-11-14T00:43:02.851Z,8.10
2022-11-14T00:45:47.368Z,7.40
2022-11-14T00:48:31.829Z,7.60
2022-11-14T00:51:15.752Z,8.90
2022-11-14T00:53:59.337Z,8.50
2022-11-14T00:56:41.887Z,9.00
2022-11-14T00:59:25.518Z,8.60
2022-11-14T01:02:09.172Z,8.50
2022-11-14T01:04:52.853Z,8.10
2022-11-14T01:07:36.533Z,8.10
2022-11-14T01:10:20.930Z,8.90
2022-11-14T01:13:04.692Z,9.00
2022-11-14T01:15:49.739Z,9.30
2022-11-14T01:18:33.926Z,9.40
2022-11-14T01:21:17.623Z,10.10
2022-11-14T01:24:00.295Z,9.80
2022-11-14T01:26:42.898Z,10.60
2022-11-14T01:29:26.974Z,9.40
2022-11-14T01:32:10.555Z,10.00
2022-11-14T01:34:54.317Z,10.70
2022-11-14T01:37:36.910Z,10.20
2022-11-14T01:40:21.482Z,9.90
2022-11-14T01:43:11.117Z,9.80
2022-11-14T01:46:10.735Z,10.10
2022-11-14T01:48:59.893Z,10.00
2022-11-14T01:52:25.618Z,9.60
2022-11-14T01:55:10.016Z,9.30
2022-11-14T01:57:53.623Z,8.70
2022-11-14T02:00:37.552Z,9.10
2022-11-14T02:03:20.903Z,9.10
2022-11-14T02:06:07.280Z,8.50
2022-11-14T02:08:52.262Z,8.60
2022-11-14T02:14:19.808Z,8.40
2022-11-14T02:17:31.076Z,8.70
2022-11-14T02:20:11.541Z,8.40
2022-11-14T02:22:54.738Z,9.30
2022-11-14T02:25:39.503Z,8.10
2022-11-14T02:28:23.364Z,8.10
2022-11-14T02:33:50.553Z,8.00
2022-11-14T02:36:34.100Z,8.20
2022-11-14T02:39:17.811Z,7.40
2022-11-14T02:42:01.456Z,9.50
2022-11-14T02:44:45.173Z,11.60
2022-11-14T02:47:28.740Z,7.70
2022-11-14T02:50:12.425Z,8.20
2022-11-14T02:52:56.383Z,7.40
2022-11-14T02:55:38.992Z,7.90
2022-11-14T02:58:22.711Z,7.00
2022-11-14T03:01:20.374Z,7.10
2022-11-14T03:04:04.356Z,8.20
2022-11-14T03:06:47.987Z,7.50
2022-11-14T03:09:31.686Z,8.20
2022-11-14T03:12:17.823Z,7.60
2022-11-14T03:15:01.516Z,6.60
2022-11-14T03:17:44.146Z,7.50
2022-11-14T03:20:27.773Z,6.90
2022-11-14T03:23:11.414Z,8.00
2022-11-14T03:25:59.791Z,7.80
2022-11-14T03:28:43.531Z,8.30
2022-11-14T03:31:26.101Z,7.50
2022-11-14T03:34:10.653Z,10.60
2022-11-14T03:36:54.398Z,9.50
2022-11-14T03:39:38.131Z,6.80
2022-11-14T03:42:21.681Z,6.60
2022-11-14T03:45:06.124Z,6.30
2022-11-14T03:47:49.748Z,6.50
2022-11-14T03:50:33.789Z,7.40
2022-11-14T03:56:01.045Z,6.10
2022-11-14T03:58:44.606Z,6.00
2022-11-14T04:01:29.145Z,5.90
2022-11-14T04:04:13.471Z,5.90
2022-11-14T04:06:57.079Z,5.90
2022-11-14T04:09:40.742Z,6.10
2022-11-14T04:12:24.353Z,7.00
2022-11-14T04:15:08.643Z,5.60
2022-11-14T04:17:52.324Z,5.40
2022-11-14T04:20:34.996Z,5.20
2022-11-14T04:23:19.484Z,5.20
2022-11-14T04:26:03.098Z,4.90
2022-11-14T04:28:46.717Z,5.40
2022-11-14T04:31:30.344Z,5.50
2022-11-14T04:34:12.903Z,4.60
2022-11-14T04:36:56.458Z,5.70
2022-11-14T04:39:39.101Z,5.20
2022-11-14T04:42:22.722Z,4.90
2022-11-14T04:45:07.679Z,4.30
2022-11-14T04:47:51.346Z,4.90
2022-11-14T04:50:33.960Z,5.40
2022-11-14T04:53:17.541Z,4.70
2022-11-14T04:56:02.207Z,4.70
2022-11-14T04:58:45.737Z,5.10
2022-11-14T05:01:29.403Z,5.40
2022-11-14T05:04:13.256Z,4.80
2022-11-14T05:06:56.868Z,4.90
2022-11-14T05:09:40.635Z,4.90
2022-11-14T05:12:24.311Z,5.40
2022-11-14T05:15:08.792Z,4.60
2022-11-14T05:17:52.384Z,5.20
2022-11-14T05:20:36.072Z,4.40
2022-11-14T05:23:22.703Z,4.50
2022-11-14T05:26:09.593Z,4.80
2022-11-14T05:28:53.227Z,4.90
2022-11-14T05:31:36.817Z,5.80
2022-11-14T05:34:20.482Z,5.00
2022-11-14T05:37:04.341Z,5.60
2022-11-14T05:39:46.965Z,5.10
2022-11-14T05:42:30.692Z,5.60
2022-11-14T05:45:14.401Z,5.30
2022-11-14T05:47:57.056Z,5.10
2022-11-14T05:50:40.764Z,5.00
2022-11-14T05:53:25.591Z,5.90
2022-11-14T05:56:12.193Z,5.70
2022-11-14T05:58:55.763Z,5.80
2022-11-14T06:01:39.565Z,6.20
2022-11-14T06:04:23.471Z,6.50
2022-11-14T06:07:09.776Z,5.30
2022-11-14T06:09:53.456Z,6.40
2022-11-14T06:12:36.020Z,6.70
2022-11-14T06:15:20.076Z,6.50
2022-11-14T06:18:03.830Z,5.80
2022-11-14T06:20:47.412Z,5.50
2022-11-14T06:23:30.264Z,5.20
2022-11-14T06:26:23.750Z,5.10
2022-11-14T06:29:07.763Z,5.30
2022-11-14T06:34:34.922Z,5.60
2022-11-14T06:37:18.492Z,5.40
2022-11-14T06:40:02.114Z,6.40
2022-11-14T06:42:45.720Z,5.90
2022-11-14T06:45:29.410Z,6.30
2022-11-14T06:48:12.982Z,5.40
2022-11-14T06:50:58.444Z,5.20
2022-11-14T06:53:42.696Z,6.20
2022-11-14T06:56:26.644Z,5.80
2022-11-14T06:59:10.253Z,5.60
2022-11-14T07:01:53.930Z,5.40
2022-11-14T07:04:37.499Z,5.50
2022-11-14T07:07:21.322Z,5.60
2022-11-14T07:10:04.146Z,5.50
2022-11-14T07:12:47.795Z,5.60
2022-11-14T07:18:15.264Z,5.10
2022-11-14T07:21:00.960Z,4.40
2022-11-14T07:23:44.532Z,4.50
2022-11-14T07:26:28.230Z,4.50
2022-11-14T07:29:12.784Z,4.60
2022-11-14T07:32:06.094Z,4.30
2022-11-14T07:34:49.635Z,4.60
2022-11-14T07:37:33.306Z,4.10
2022-11-14T07:40:17.076Z,4.80
2022-11-14T07:43:01.724Z,5.00
2022-11-14T07:45:45.366Z,5.00
2022-11-14T07:48:30.387Z,4.50
2022-11-14T07:51:17.043Z,4.30
2022-11-14T07:54:00.690Z,5.10
2022-11-14T07:56:44.460Z,6.60
2022-11-14T07:59:28.052Z,4.50
2022-11-14T08:02:14.758Z,4.50
2022-11-14T08:04:58.459Z,4.60
2022-11-14T08:07:41.031Z,3.90
2022-11-14T08:10:26.128Z,3.80
2022-11-14T08:16:14.902Z,4.80
2022-11-14T08:18:58.700Z,4.10
2022-11-14T08:21:42.773Z,3.80
2022-11-14T08:27:08.805Z,4.20
2022-11-14T08:29:53.447Z,4.10
2022-11-14T08:32:36.041Z,4.80
2022-11-14T08:35:20.214Z,4.60
2022-11-14T08:40:47.352Z,3.90
2022-11-14T08:43:32.009Z,3.60
2022-11-14T08:46:15.637Z,3.80
2022-11-14T08:49:00.226Z,3.90
2022-11-14T08:51:45.529Z,3.80
2022-11-14T08:54:29.247Z,3.50
2022-11-14T08:57:15.342Z,3.90
2022-11-14T08:59:57.904Z,3.70
2022-11-14T09:02:41.526Z,3.90
2022-11-14T09:05:26.380Z,4.60
2022-11-14T09:08:09.023Z,3.60
2022-11-14T09:10:52.599Z,3.80
2022-11-14T09:13:36.147Z,4.50
2022-11-14T09:16:19.751Z,3.80
2022-11-14T09:19:03.893Z,4.00
2022-11-14T09:21:47.475Z,4.00
2022-11-14T09:24:30.154Z,4.60
2022-11-14T09:27:14.061Z,4.30
2022-11-14T09:29:57.685Z,3.80
2022-11-14T09:32:41.238Z,3.90
2022-11-14T09:35:24.812Z,4.10
2022-11-14T09:38:11.655Z,4.10
2022-11-14T09:41:27.085Z,5.30
2022-11-14T09:44:41.347Z,6.00
2022-11-14T09:47:33.166Z,4.00
2022-11-14T09:50:25.894Z,4.00
2022-11-14T09:53:19.512Z,4.20
2022-11-14T09:58:46.816Z,4.30
2022-11-14T10:01:33.323Z,6.30
2022-11-14T10:04:39.002Z,5.60
2022-11-14T10:07:31.589Z,4.70
2022-11-14T10:10:43.513Z,5.00
2022-11-14T10:13:52.892Z,4.90
2022-11-14T10:16:48.271Z,4.80
2022-11-14T10:19:57.076Z,4.60
2022-11-14T10:23:01.794Z,5.10
2022-11-14T10:26:06.869Z,5.50
2022-11-14T10:29:04.836Z,5.80
2022-11-14T10:31:51.437Z,5.50
2022-11-14T10:34:54.065Z,5.10
2022-11-14T10:37:59.268Z,6.30
2022-11-14T10:40:48.487Z,4.50
2022-11-14T10:43:38.620Z,4.50
2022-11-14T10:46:41.640Z,4.50
2022-11-14T10:49:26.676Z,4.40
2022-11-14T10:52:18.070Z,4.20
2022-11-14T10:55:13.432Z,4.20
2022-11-14T10:57:57.934Z,4.50
2022-11-14T11:00:42.527Z,4.80
2022-11-14T11:03:46.504Z,4.90
2022-11-14T11:06:30.099Z,4.90
2022-11-14T11:09:33.607Z,4.80
2022-11-14T11:12:20.156Z,5.10
2022-11-14T11:15:21.359Z,4.90
2022-11-14T11:18:22.369Z,4.60
2022-11-14T11:21:06.150Z,5.30
2022-11-14T11:23:56.399Z,5.90
2022-11-14T11:26:39.962Z,5.10
2022-11-14T11:29:23.547Z,5.20
2022-11-14T11:32:08.841Z,5.70
2022-11-14T11:34:52.678Z,6.40
2022-11-14T11:37:57.117Z,5.50
2022-11-14T11:40:43.906Z,5.50
2022-11-14T11:43:45.070Z,6.00
2022-11-14T11:46:44.554Z,5.20
2022-11-14T11:49:54.164Z,6.40
2022-11-14T11:52:47.446Z,5.30
2022-11-14T11:55:34.256Z,5.40
2022-11-14T11:58:26.024Z,5.40
2022-11-14T12:01:14.562Z,5.50
2022-11-14T12:04:00.664Z,5.50
2022-11-14T12:07:09.606Z,5.20
2022-11-14T12:10:10.815Z,5.70
2022-11-14T12:13:06.262Z,5.40
2022-11-14T12:16:12.842Z,5.20
2022-11-14T12:19:17.614Z,5.70
2022-11-14T12:22:28.166Z,5.40
2022-11-14T12:25:33.915Z,5.30
2022-11-14T12:28:59.261Z,5.80
2022-11-14T12:31:43.064Z,5.50
2022-11-14T12:34:30.623Z,6.00
2022-11-14T12:37:20.715Z,5.90
2022-11-14T12:40:06.373Z,6.80
2022-11-14T12:42:50.384Z,5.90
2022-11-14T12:45:35.938Z,6.30
2022-11-14T12:48:25.430Z,6.30
2022-11-14T12:51:35.140Z,6.50
2022-11-14T12:54:51.260Z,6.50
2022-11-14T12:57:53.072Z,6.90
2022-11-14T13:00:52.668Z,6.90
2022-11-14T13:03:54.762Z,7.10
2022-11-14T13:06:51.700Z,6.80
2022-11-14T13:10:09.390Z,6.60
2022-11-14T13:13:14.723Z,7.50
2022-11-14T13:16:16.299Z,6.60
2022-11-14T13:19:35.072Z,6.90
2022-11-14T13:22:35.246Z,6.60
2022-11-14T13:25:20.600Z,7.20
2022-11-14T13:28:40.140Z,6.80
2022-11-14T13:31:44.415Z,6.60
2022-11-14T13:34:52.060Z,7.50
2022-11-14T13:37:47.235Z,7.10
2022-11-14T13:40:38.184Z,6.90
2022-11-14T13:43:46.497Z,7.20
2022-11-14T13:46:47.513Z,7.20
2022-11-14T13:50:13.411Z,6.80
2022-11-14T13:52:57.012Z,7.30
2022-11-14T13:55:51.036Z,7.50
2022-11-14T13:58:43.393Z,7.50
2022-11-14T14:01:29.868Z,7.60
2022-11-14T14:04:36.245Z,7.30
2022-11-14T14:07:39.923Z,7.90
2022-11-14T14:10:27.596Z,7.80
2022-11-14T14:13:43.511Z,7.70
2022-11-14T14:16:43.162Z,8.20
2022-11-14T14:19:52.712Z,8.30
2022-11-14T14:22:56.123Z,8.00
2022-11-14T14:25:43.872Z,8.00
2022-11-14T14:28:57.978Z,7.70
2022-11-14T14:31:42.184Z,8.70
2022-11-14T14:34:31.303Z,8.80
2022-11-14T14:37:23.094Z,8.70
2022-11-14T14:40:21.812Z,8.70
2022-11-14T14:43:06.655Z,7.70
2022-11-14T14:45:53.362Z,7.90
2022-11-14T14:48:41.972Z,7.30
2022-11-14T14:51:34.672Z,17.30
2022-11-14T14:54:29.279Z,10.10
2022-11-14T14:57:21.442Z,10.30
2022-11-14T15:00:28.636Z,10.40
2022-11-14T15:03:12.294Z,8.60
2022-11-14T15:06:00.007Z,8.70
2022-11-14T15:08:46.064Z,9.30
2022-11-14T15:11:32.752Z,9.90
2022-11-14T15:14:22.455Z,9.40
2022-11-14T15:17:06.941Z,9.40
2022-11-14T15:19:53.122Z,10.50
2022-11-14T15:22:37.293Z,10.30
2022-11-14T15:25:20.376Z,10.10
2022-11-14T15:31:04.585Z,11.90
2022-11-14T15:34:06.087Z,9.90
2022-11-14T15:37:19.462Z,10.00
2022-11-14T15:40:20.295Z,10.80
2022-11-14T15:43:38.885Z,11.00
2022-11-14T15:46:40.642Z,9.80
2022-11-14T15:49:27.038Z,12.90
2022-11-14T15:52:22.690Z,9.70
2022-11-14T15:55:15.325Z,9.70
2022-11-14T15:58:26.117Z,9.60
2022-11-14T16:01:01.930Z,10.40
2022-11-14T16:03:51.517Z,9.40
2022-11-14T16:06:34.890Z,9.60
2022-11-14T16:09:20.941Z,9.20
2022-11-14T16:12:05.083Z,11.30
2022-11-14T16:14:48.832Z,12.80
2022-11-14T16:17:38.120Z,10.20
2022-11-14T16:20:30.429Z,10.20
2022-11-14T16:23:13.887Z,9.40
2022-11-14T16:25:57.475Z,10.50
2022-11-14T16:28:41.092Z,11.00
2022-11-14T16:31:25.783Z,9.60
2022-11-14T16:34:15.986Z,9.60
2022-11-14T16:37:01.944Z,11.30
2022-11-14T16:39:45.566Z,11.40
2022-11-14T16:42:28.148Z,30.70
2022-11-14T16:45:12.277Z,12.30
2022-11-14T16:47:54.910Z,18.70
2022-11-14T16:50:38.617Z,14.80
2022-11-14T16:53:22.424Z,13.20
2022-11-14T16:56:06.754Z,9.10
2022-11-14T16:58:54.989Z,13.50
2022-11-14T17:01:39.007Z,12.50
2022-11-14T17:04:22.727Z,10.30
2022-11-14T17:07:06.431Z,8.90
2022-11-14T17:09:50.098Z,11.00
2022-11-14T17:12:34.219Z,10.00
2022-11-14T17:15:17.781Z,10.40
2022-11-14T17:18:01.671Z,9.20
2022-11-14T17:20:45.408Z,13.30
2022-11-14T17:23:29.022Z,12.40
2022-11-14T17:26:13.803Z,12.10
2022-11-14T17:28:57.540Z,11.70
2022-11-14T17:31:45.879Z,10.70
2022-11-14T17:34:32.039Z,14.10
2022-11-14T17:37:16.261Z,12.50
2022-11-14T17:39:58.954Z,11.20
2022-11-14T17:42:42.567Z,10.50
2022-11-14T17:45:26.242Z,15.50
2022-11-14T17:48:09.839Z,10.50
2022-11-14T17:50:53.748Z,11.40
2022-11-14T17:53:37.576Z,11.10
2022-11-14T17:56:25.228Z,9.90
2022-11-14T17:59:08.819Z,10.80
2022-11-14T18:01:54.579Z,10.30
2022-11-14T18:04:38.328Z,8.50
2022-11-14T18:07:21.457Z,9.60
2022-11-14T18:10:05.976Z,10.20
2022-11-14T18:12:49.644Z,10.10
2022-11-14T18:15:34.034Z,10.60
2022-11-14T18:18:19.524Z,10.70
2022-11-14T18:21:23.428Z,10.60
2022-11-14T18:24:06.285Z,10.40
2022-11-14T18:26:50.536Z,10.40
2022-11-14T18:29:34.233Z,12.00
2022-11-14T18:32:18.304Z,11.10
2022-11-14T18:35:00.958Z,10.60
2022-11-14T18:37:44.509Z,12.00
2022-11-14T18:40:28.429Z,12.20
2022-11-14T18:43:10.982Z,13.30
2022-11-14T18:45:55.175Z,12.80
2022-11-14T18:48:40.525Z,13.30
2022-11-14T18:51:28.396Z,12.40
2022-11-14T18:54:13.188Z,14.60
2022-11-14T18:56:57.198Z,12.30
2022-11-14T18:59:40.795Z,12.80
2022-11-14T19:02:24.699Z,15.00
2022-11-14T19:05:08.509Z,13.50
2022-11-14T19:07:52.876Z,14.10
2022-11-14T19:10:36.454Z,13.60
2022-11-14T19:13:23.526Z,11.40
2022-11-14T19:16:07.567Z,11.80
2022-11-14T19:18:51.308Z,17.30
2022-11-14T19:21:34.796Z,12.30
2022-11-14T19:24:18.607Z,12.80
2022-11-14T19:27:01.213Z,12.50
2022-11-14T19:29:44.975Z,12.50
2022-11-14T19:32:28.613Z,19.30
2022-11-14T19:35:17.335Z,15.40
2022-11-14T19:38:04.074Z,13.10
2022-11-14T19:40:50.987Z,12.10
2022-11-14T19:43:37.749Z,11.40
2022-11-14T19:46:22.404Z,13.10
2022-11-14T19:49:07.294Z,12.50
2022-11-14T19:51:50.215Z,15.50
2022-11-14T19:54:33.850Z,13.30
2022-11-14T19:57:17.477Z,11.50
2022-11-14T20:00:01.087Z,11.40
2022-11-14T20:02:48.019Z,12.20
2022-11-14T20:05:32.487Z,11.30
2022-11-14T20:08:16.122Z,11.70
2022-11-14T20:11:02.177Z,15.10
2022-11-14T20:13:46.328Z,11.20
2022-11-14T20:16:32.011Z,10.90
2022-11-14T20:19:16.023Z,12.20
2022-11-14T20:21:59.602Z,17.80
2022-11-14T20:24:43.450Z,17.80
2022-11-14T20:27:27.732Z,14.00
2022-11-14T20:32:55.157Z,13.90
2022-11-14T20:35:40.270Z,12.70
2022-11-14T20:38:22.877Z,13.30
2022-11-14T20:41:06.571Z,12.00
2022-11-14T20:43:50.122Z,13.20
2022-11-14T20:46:33.788Z,12.20
2022-11-14T20:49:17.377Z,15.50
2022-11-14T20:52:04.698Z,13.00
2022-11-14T20:54:48.291Z,11.00
2022-11-14T20:57:31.098Z,12.30
2022-11-14T21:00:15.438Z,12.30
2022-11-14T21:02:59.132Z,10.80
2022-11-14T21:05:43.131Z,14.20
2022-11-14T21:08:26.933Z,13.90
2022-11-14T21:11:16.002Z,12.00
2022-11-14T21:13:59.752Z,11.00
2022-11-14T21:16:43.497Z,12.30
2022-11-14T21:19:26.481Z,18.00
2022-11-14T21:22:10.231Z,12.60
2022-11-14T21:24:53.831Z,11.20
2022-11-14T21:27:37.473Z,11.30
2022-11-14T21:30:20.163Z,11.70
2022-11-14T21:35:47.788Z,12.90
2022-11-14T21:38:31.429Z,15.30
2022-11-14T21:41:16.623Z,15.00
2022-11-14T21:44:03.116Z,13.50
2022-11-14T21:46:49.524Z,11.00
2022-11-14T21:49:33.126Z,11.40
2022-11-14T21:52:16.692Z,13.70
2022-11-14T21:55:00.310Z,11.50
2022-11-14T21:57:42.880Z,11.20
2022-11-14T22:00:26.448Z,11.20
2022-11-14T22:03:31.166Z,11.30
2022-11-14T22:08:58.437Z,12.60
2022-11-14T22:11:41.154Z,12.70
2022-11-14T22:14:25.461Z,11.50
2022-11-14T22:17:07.987Z,11.00
2022-11-14T22:19:51.556Z,14.10
2022-11-14T22:22:35.196Z,11.60
2022-11-14T22:25:18.837Z,12.20
2022-11-14T22:28:02.516Z,11.70
2022-11-14T22:30:46.124Z,10.90
2022-11-14T22:33:32.198Z,11.30
2022-11-14T22:36:24.459Z,11.20
2022-11-14T22:39:07.053Z,11.00
2022-11-14T22:41:50.840Z,11.70
2022-11-14T22:44:34.723Z,11.40
2022-11-14T22:47:18.432Z,12.30
2022-11-14T22:50:02.080Z,11.60
2022-11-14T22:52:45.636Z,11.40
2022-11-14T22:55:29.300Z,10.80
2022-11-14T22:58:11.893Z,10.80
2022-11-14T23:00:55.561Z,11.40
2022-11-14T23:03:40.433Z,10.60
2022-11-14T23:06:24.816Z,10.60
2022-11-14T23:09:08.440Z,10.60
2022-11-14T23:11:51.087Z,11.50
2022-11-14T23:14:34.799Z,11.00
2022-11-14T23:17:18.383Z,12.10
2022-11-14T23:20:02.008Z,10.70
2022-11-14T23:22:46.232Z,11.80
2022-11-14T23:28:13.452Z,11.70
2022-11-14T23:30:57.652Z,10.80
2022-11-14T23:33:41.441Z,10.20
2022-11-14T23:36:24.612Z,10.30
2022-11-14T23:41:51.733Z,10.20
2022-11-14T23:44:35.649Z,11.50
2022-11-14T23:47:19.247Z,11.90
2022-11-14T23:50:01.878Z,11.50
2022-11-14T23:52:46.447Z,10.30
2022-11-14T23:55:29.048Z,10.20
2022-11-14T23:58:12.622Z,11.10
